Kezdőlap
METAR-TAF:

METAR-TAF

Repülőterek :

Salida, Colorado, Amerikai Egyesült Államok

földrajzi szélesség: 38-32-18N, földrajzi hosszúság: 106-02-55W, magasság: 2293 m

Jelenlegi meteorológiai megfigyelések

A jelentés 19 perccel ezelõtt készült, 11:35 UTC
Nyugati szél 4 kt
Hőmérséklet -5°C
Páratartalom 53%
Légköri nyomás 1022 hPa
Látótávolság: 16.1 km
Derült ég

METAR: KANK 291135Z AUTO 26004KT 10SM CLR M05/M13 A3017 RMK AO1 T10551127

Idő: 05:54 (11:54 UTC)


TAF: hiányzik

Meteorológiai megfigyelések és előrejelzések több, mint 4000 repülőtéren (METAR és TAF jelentéseket).

A térképen piros és sárga pontok jelzik az elérhető meteorológiai állomásokat.

Mozgassa az egeret a pont fölött, hogy megjelenjen az állomás neve.

Azután kattintson az időjárási megfigyelések és előrejelzések megtekintéséhez.

A térkép megváltoztatása: kattintson a fekete keresztel jelölt zöld gombra ráközelítéshez, a vonallal jelölt zöld gombra távolításhoz, vagy a zöld nyilakra a szomszédos térképek eléréséhez.


METAR-TAF: